Time;durP1;ratioP1;P1;durP2;ratioP2;P2;SDS_P1;SDS_P2;PMS_P1;PMS_P2;Temp;Humidity;BMP_temperature;BMP_pressure;BME280_temperature;BME280_humidity;BME280_pressure;Samples;Min_cycle;Max_cycle;Signal;HPM_P1;HPM_P2
2021/09/16 00:00:08;;;;;;;14.40;10.23;;;17.80;99.90;;;;;;5017548;28;20136;-94
2021/09/16 00:02:34;;;;;;;15.90;11.30;;;17.90;99.90;;;;;;5017270;28;20413;-94
2021/09/16 00:05:01;;;;;;;10.10;9.07;;;17.90;99.90;;;;;;5016370;28;20053;-94
2021/09/16 00:07:28;;;;;;;11.10;8.68;;;17.80;99.90;;;;;;5016911;28;20141;-92
2021/09/16 00:09:54;;;;;;;12.25;9.20;;;17.80;99.90;;;;;;5016780;28;20052;-92
2021/09/16 00:12:21;;;;;;;13.40;9.95;;;17.80;99.90;;;;;;5049750;28;20076;-92
2021/09/16 00:14:48;;;;;;;10.43;9.43;;;17.80;99.90;;;;;;5016617;28;20139;-91
2021/09/16 00:17:14;;;;;;;10.70;9.57;;;17.80;99.90;;;;;;5016574;28;20053;-92
2021/09/16 00:19:41;;;;;;;15.60;11.82;;;17.80;99.90;;;;;;5016725;28;20053;-93
2021/09/16 00:22:08;;;;;;;19.38;13.02;;;17.90;99.90;;;;;;5023819;28;20078;-95
2021/09/16 00:24:35;;;;;;;19.23;12.15;;;17.80;99.90;;;;;;5019241;28;20054;-94
2021/09/16 00:27:02;;;;;;;11.77;10.57;;;17.80;99.90;;;;;;5016507;28;20053;-93
2021/09/16 00:29:29;;;;;;;10.65;9.55;;;17.80;99.90;;;;;;5016323;28;20132;-92
2021/09/16 00:31:55;;;;;;;12.63;10.13;;;17.80;99.90;;;;;;5016622;28;20136;-93
2021/09/16 00:34:22;;;;;;;9.25;8.45;;;17.90;99.90;;;;;;5016866;28;20052;-95
2021/09/16 00:36:49;;;;;;;10.52;9.48;;;17.90;99.90;;;;;;5017275;28;20136;-93
2021/09/16 00:39:16;;;;;;;9.35;8.55;;;17.80;99.90;;;;;;5016339;28;20084;-95
2021/09/16 00:41:43;;;;;;;11.95;9.88;;;17.80;99.90;;;;;;5016539;28;20136;-94
2021/09/16 00:44:10;;;;;;;10.32;9.32;;;17.80;99.90;;;;;;5016510;28;20058;-93
2021/09/16 00:46:36;;;;;;;10.18;9.18;;;17.80;99.90;;;;;;5016247;28;20468;-92
2021/09/16 00:49:04;;;;;;;10.07;9.07;;;17.70;99.90;;;;;;5016091;28;20053;-94
2021/09/16 00:51:31;;;;;;;13.98;9.82;;;17.70;99.90;;;;;;5020655;28;20072;-94
2021/09/16 00:54:00;;;;;;;9.27;8.32;;;17.80;99.90;;;;;;5024177;28;20133;-95
2021/09/16 00:56:29;;;;;;;10.40;9.23;;;17.80;99.90;;;;;;5059554;28;20100;-94
2021/09/16 00:58:59;;;;;;;8.98;8.18;;;17.80;99.90;;;;;;5026181;28;20049;-95
2021/09/16 01:01:29;;;;;;;12.90;9.65;;;17.80;99.90;;;;;;5040280;28;20049;-95
2021/09/16 01:03:57;;;;;;;8.48;7.68;;;17.80;99.90;;;;;;5024994;28;20053;-94
2021/09/16 01:06:25;;;;;;;17.77;10.07;;;17.80;99.90;;;;;;5029158;28;20069;-95
2021/09/16 01:08:53;;;;;;;7.88;7.10;;;17.80;99.90;;;;;;5061287;28;20033;-95
2021/09/16 01:11:21;;;;;;;8.95;8.05;;;17.80;99.90;;;;;;5029194;28;20046;-94
2021/09/16 01:13:48;;;;;;;7.47;6.75;;;17.90;99.90;;;;;;5021090;28;20092;-95
2021/09/16 01:16:15;;;;;;;7.63;6.93;;;17.80;99.90;;;;;;5021084;28;20140;-95
2021/09/16 01:18:42;;;;;;;8.10;7.40;;;17.90;99.90;;;;;;5021447;28;20405;-95
2021/09/16 01:21:08;;;;;;;7.63;6.85;;;17.80;99.90;;;;;;5021746;28;20061;-95
2021/09/16 01:23:35;;;;;;;7.57;6.88;;;17.90;99.90;;;;;;5025904;28;20189;-96
2021/09/16 01:26:02;;;;;;;7.63;6.95;;;17.90;99.90;;;;;;5022348;28;20144;-95
2021/09/16 01:28:29;;;;;;;7.20;6.50;;;17.90;99.90;;;;;;5027778;28;20048;-95
2021/09/16 01:30:57;;;;;;;6.72;6.22;;;17.90;99.90;;;;;;5029916;28;20060;-95
2021/09/16 01:33:24;;;;;;;8.60;6.18;;;17.90;99.90;;;;;;5026605;28;20050;-94
2021/09/16 01:35:51;;;;;;;7.13;6.63;;;17.90;99.90;;;;;;5026556;28;20076;-95
2021/09/16 01:38:18;;;;;;;7.38;6.68;;;17.90;99.90;;;;;;5027694;28;20474;-95
2021/09/16 01:40:44;;;;;;;6.40;5.85;;;17.90;99.90;;;;;;5025843;28;20049;-94
2021/09/16 01:43:11;;;;;;;6.60;5.90;;;17.90;99.90;;;;;;5021238;28;20069;-94
2021/09/16 01:45:38;;;;;;;7.13;6.57;;;17.90;99.90;;;;;;5022143;28;20478;-93
2021/09/16 01:48:05;;;;;;;6.93;6.32;;;17.90;99.90;;;;;;5021556;28;20045;-94
2021/09/16 01:50:32;;;;;;;7.30;6.60;;;17.70;99.90;;;;;;5019634;28;20080;-93
2021/09/16 01:52:59;;;;;;;8.13;7.43;;;17.80;99.90;;;;;;5019386;28;20493;-93
2021/09/16 01:55:26;;;;;;;7.95;7.20;;;17.80;99.90;;;;;;5019396;28;20558;-93
2021/09/16 01:57:53;;;;;;;9.43;7.03;;;17.80;99.90;;;;;;5019438;28;20045;-94
2021/09/16 02:00:19;;;;;;;8.35;7.60;;;17.80;99.90;;;;;;5019240;28;20060;-94
2021/09/16 02:02:46;;;;;;;8.25;7.50;;;17.80;99.90;;;;;;5019336;28;20060;-93
2021/09/16 02:05:13;;;;;;;9.93;8.38;;;17.80;99.90;;;;;;5018162;28;20088;-93
2021/09/16 02:07:41;;;;;;;9.13;8.23;;;17.80;99.90;;;;;;5015766;28;20483;-93
2021/09/16 02:10:09;;;;;;;9.02;8.23;;;17.80;99.90;;;;;;5048493;28;20061;-93
2021/09/16 02:12:35;;;;;;;11.15;9.38;;;17.80;99.90;;;;;;5048679;28;20056;-93
2021/09/16 02:15:03;;;;;;;10.32;9.23;;;17.80;99.90;;;;;;5048159;28;20129;-91
2021/09/16 02:17:30;;;;;;;24.27;14.57;;;17.70;99.90;;;;;;5048563;28;20046;-93
2021/09/16 02:19:57;;;;;;;25.92;15.25;;;17.60;99.90;;;;;;5015737;28;20076;-92
2021/09/16 02:22:24;;;;;;;28.02;18.50;;;17.50;99.90;;;;;;5016573;28;20053;-93
2021/09/16 02:24:50;;;;;;;38.83;21.83;;;17.40;99.90;;;;;;5022349;28;20097;-93
2021/09/16 02:27:17;;;;;;;45.83;25.70;;;17.40;99.90;;;;;;5040164;28;20064;-94
2021/09/16 02:29:44;;;;;;;36.42;23.02;;;17.20;99.90;;;;;;5023778;28;20070;-94
2021/09/16 02:32:11;;;;;;;46.20;26.25;;;17.20;99.90;;;;;;5017626;28;20050;-95
2021/09/16 02:34:38;;;;;;;49.95;27.10;;;17.10;99.90;;;;;;5017778;28;20050;-95
2021/09/16 02:37:05;;;;;;;38.22;25.50;;;17.10;99.90;;;;;;5021875;28;20092;-94
2021/09/16 02:39:32;;;;;;;61.03;30.38;;;17.10;99.90;;;;;;5017671;28;20070;-93
2021/09/16 02:41:58;;;;;;;57.17;31.83;;;17.00;99.90;;;;;;5015700;28;20136;-94
2021/09/16 02:44:25;;;;;;;63.83;33.03;;;17.00;99.90;;;;;;5015964;28;20050;-94
2021/09/16 02:46:52;;;;;;;65.55;33.47;;;16.90;99.90;;;;;;5015791;28;20146;-93
2021/09/16 02:49:19;;;;;;;57.03;29.40;;;16.90;99.90;;;;;;5015689;28;20140;-94
2021/09/16 02:51:45;;;;;;;57.97;31.33;;;16.90;99.90;;;;;;5016067;28;20136;-94
2021/09/16 02:54:12;;;;;;;64.55;33.45;;;16.90;99.90;;;;;;5015464;28;20045;-93
2021/09/16 02:56:40;;;;;;;67.32;32.83;;;16.80;99.90;;;;;;5014754;28;20133;-93
2021/09/16 02:59:07;;;;;;;59.33;31.95;;;16.80;99.90;;;;;;5014710;28;20056;-93
2021/09/16 03:01:34;;;;;;;55.95;30.02;;;16.80;99.90;;;;;;5014612;28;20049;-93
2021/09/16 03:04:01;;;;;;;50.83;29.90;;;16.80;99.90;;;;;;5014511;28;20045;-93
2021/09/16 03:06:27;;;;;;;52.50;28.48;;;16.80;99.90;;;;;;5014311;28;20046;-93
2021/09/16 03:08:54;;;;;;;49.75;28.15;;;16.90;99.90;;;;;;5051078;28;20128;-92
2021/09/16 03:11:21;;;;;;;57.13;28.60;;;16.90;99.90;;;;;;5018399;28;20053;-92
2021/09/16 03:13:47;;;;;;;53.63;29.30;;;16.90;99.90;;;;;;5021302;28;20049;-92
2021/09/16 03:16:15;;;;;;;51.10;27.67;;;16.90;99.90;;;;;;5018314;28;20045;-92
2021/09/16 03:18:43;;;;;;;47.78;27.17;;;16.80;99.90;;;;;;5017601;28;20053;-92
2021/09/16 03:21:10;;;;;;;58.10;28.67;;;16.80;99.90;;;;;;5022170;28;20052;-94
2021/09/16 03:23:36;;;;;;;43.00;25.02;;;16.80;99.90;;;;;;5017778;28;20565;-92
2021/09/16 03:26:03;;;;;;;53.05;28.30;;;16.90;99.90;;;;;;5017143;28;20159;-92
2021/09/16 03:28:30;;;;;;;55.33;28.67;;;16.90;99.90;;;;;;5017620;28;20047;-92
2021/09/16 03:30:57;;;;;;;73.40;31.17;;;16.80;99.90;;;;;;5017522;28;20559;-92
2021/09/16 03:33:24;;;;;;;66.45;32.72;;;16.70;99.90;;;;;;5017393;28;20481;-92
2021/09/16 03:35:51;;;;;;;76.97;34.80;;;16.70;99.90;;;;;;5017807;28;20049;-92
2021/09/16 03:38:18;;;;;;;68.05;33.75;;;16.60;99.90;;;;;;5035451;28;20049;-92
2021/09/16 03:40:45;;;;;;;69.60;33.05;;;16.70;99.90;;;;;;5017591;28;20508;-91
2021/09/16 03:43:11;;;;;;;49.38;27.63;;;16.70;99.90;;;;;;5021331;28;20136;-91
2021/09/16 03:45:38;;;;;;;51.60;28.13;;;16.70;99.90;;;;;;5041700;28;20069;-91
2021/09/16 03:48:05;;;;;;;66.13;29.30;;;16.80;99.90;;;;;;5027756;28;20588;-91
2021/09/16 03:50:32;;;;;;;47.83;28.15;;;16.80;99.90;;;;;;5017442;28;20045;-91
2021/09/16 03:52:58;;;;;;;50.90;29.13;;;16.80;99.90;;;;;;5016741;28;20409;-90
2021/09/16 03:55:25;;;;;;;54.17;30.73;;;16.90;99.90;;;;;;5016856;28;20136;-91
2021/09/16 03:57:52;;;;;;;52.78;29.02;;;16.80;99.90;;;;;;5016960;28;20045;-91
2021/09/16 04:00:19;;;;;;;52.83;29.27;;;16.80;99.90;;;;;;5016905;28;20075;-90
2021/09/16 04:02:45;;;;;;;54.72;31.38;;;16.80;99.90;;;;;;5016764;28;20050;-90
2021/09/16 04:05:12;;;;;;;50.83;28.55;;;16.80;99.90;;;;;;5016645;28;20050;-89
2021/09/16 04:07:40;;;;;;;52.65;28.02;;;16.80;99.90;;;;;;5013454;28;20072;-90
2021/09/16 04:10:08;;;;;;;43.20;25.27;;;16.80;99.90;;;;;;5013278;28;20128;-90
2021/09/16 04:12:35;;;;;;;54.70;28.00;;;16.70;99.90;;;;;;5013507;28;20410;-90
2021/09/16 04:15:06;;;;;;;48.30;25.85;;;16.70;99.90;;;;;;5016107;28;20140;-90
2021/09/16 04:17:33;;;;;;;44.35;26.92;;;16.70;99.90;;;;;;5015741;28;20160;-91
2021/09/16 04:20:00;;;;;;;51.03;26.05;;;16.80;99.90;;;;;;5013323;28;20088;-90
2021/09/16 04:22:27;;;;;;;52.45;27.10;;;16.70;99.90;;;;;;5013990;28;20056;-90
2021/09/16 04:24:54;;;;;;;66.85;28.77;;;16.60;99.90;;;;;;5012703;28;20056;-90
2021/09/16 04:27:21;;;;;;;47.88;24.98;;;16.60;99.90;;;;;;5013153;28;20491;-90
2021/09/16 04:29:47;;;;;;;52.47;26.88;;;16.60;99.90;;;;;;5012673;28;20463;-90
2021/09/16 04:32:14;;;;;;;68.25;30.65;;;16.70;99.90;;;;;;5013243;28;20120;-91
2021/09/16 04:34:41;;;;;;;76.05;30.77;;;16.70;99.90;;;;;;5013341;28;20052;-91
2021/09/16 04:37:08;;;;;;;59.33;25.85;;;16.60;99.90;;;;;;5012726;28;20134;-91
2021/09/16 04:39:34;;;;;;;55.53;26.80;;;16.50;99.90;;;;;;5012954;28;20050;-91
2021/09/16 04:42:01;;;;;;;50.10;23.13;;;16.40;99.90;;;;;;5013026;28;20060;-91
2021/09/16 04:44:28;;;;;;;33.05;19.15;;;16.30;99.90;;;;;;5012856;28;20144;-91
2021/09/16 04:46:55;;;;;;;32.45;18.17;;;16.30;99.90;;;;;;5012286;28;20056;-90
2021/09/16 04:49:21;;;;;;;23.73;15.60;;;16.30;99.90;;;;;;5012896;28;20049;-90
2021/09/16 04:51:48;;;;;;;33.95;18.83;;;16.20;99.90;;;;;;5012800;28;20054;-90
2021/09/16 04:54:15;;;;;;;26.55;17.30;;;16.20;99.90;;;;;;5012516;28;20050;-90
2021/09/16 04:56:42;;;;;;;25.70;17.13;;;16.20;99.90;;;;;;5012671;28;20050;-90
2021/09/16 04:59:09;;;;;;;26.70;18.80;;;16.20;99.90;;;;;;5013198;28;20045;-90
2021/09/16 05:01:36;;;;;;;24.60;16.95;;;16.20;99.90;;;;;;5014366;28;20100;-90
2021/09/16 05:04:03;;;;;;;23.77;17.70;;;16.20;99.90;;;;;;5035802;28;20046;-89
2021/09/16 05:06:30;;;;;;;27.50;18.33;;;16.20;99.90;;;;;;5025533;28;20073;-90
2021/09/16 05:08:57;;;;;;;28.30;18.45;;;16.30;99.90;;;;;;5015939;28;20052;-89
2021/09/16 05:11:24;;;;;;;27.63;20.90;;;16.30;99.90;;;;;;5015932;28;20057;-89
2021/09/16 05:13:51;;;;;;;24.30;19.05;;;16.40;99.90;;;;;;5016109;28;20473;-89
2021/09/16 05:16:17;;;;;;;32.22;19.83;;;16.40;99.90;;;;;;5015995;28;20508;-89
2021/09/16 05:18:44;;;;;;;30.90;19.90;;;16.40;99.90;;;;;;5015901;28;20049;-89
2021/09/16 05:21:11;;;;;;;31.67;21.67;;;16.40;99.90;;;;;;5016016;28;20139;-88
2021/09/16 05:23:38;;;;;;;44.30;25.50;;;16.50;99.90;;;;;;5016008;28;20137;-89
2021/09/16 05:26:04;;;;;;;42.15;27.02;;;16.50;99.90;;;;;;5015604;28;20049;-88
2021/09/16 05:28:31;;;;;;;41.70;25.50;;;16.50;99.90;;;;;;5015945;28;20056;-88
2021/09/16 05:30:58;;;;;;;32.08;21.25;;;16.60;99.90;;;;;;5015593;28;20053;-89
2021/09/16 05:33:24;;;;;;;33.17;20.92;;;16.50;99.90;;;;;;5015889;28;20052;-88
2021/09/16 05:35:51;;;;;;;30.05;19.50;;;16.50;99.90;;;;;;5015786;28;20049;-89
2021/09/16 05:38:18;;;;;;;22.02;17.05;;;16.50;99.90;;;;;;5015756;28;20391;-88
2021/09/16 05:40:44;;;;;;;31.15;20.13;;;16.50;99.90;;;;;;5016279;28;20080;-88
2021/09/16 05:43:11;;;;;;;30.65;19.63;;;16.40;99.90;;;;;;5019368;28;20128;-89
2021/09/16 05:45:39;;;;;;;24.90;17.38;;;16.40;99.90;;;;;;5019096;28;20132;-91
2021/09/16 05:48:06;;;;;;;23.98;18.48;;;16.40;99.90;;;;;;5019413;28;20104;-93
2021/09/16 05:50:34;;;;;;;34.75;19.88;;;16.40;99.90;;;;;;5019278;28;20145;-93
2021/09/16 05:53:00;;;;;;;25.73;19.02;;;16.40;99.90;;;;;;5019288;28;20109;-93
2021/09/16 05:55:28;;;;;;;30.48;19.60;;;16.40;99.90;;;;;;5019033;28;20056;-93
2021/09/16 05:57:55;;;;;;;22.70;17.75;;;16.40;99.90;;;;;;5019200;28;20060;-94
2021/09/16 06:00:23;;;;;;;22.08;14.10;;;16.20;99.90;;;;;;5019104;28;20395;-94
2021/09/16 06:02:50;;;;;;;17.27;12.45;;;16.10;99.90;;;;;;5018998;28;20137;-93
2021/09/16 06:05:17;;;;;;;14.77;10.90;;;16.00;99.90;;;;;;5018672;28;20057;-92
2021/09/16 06:07:44;;;;;;;23.40;12.77;;;15.90;99.90;;;;;;5015552;28;20077;-93
2021/09/16 06:10:13;;;;;;;20.13;14.93;;;15.90;99.90;;;;;;5015762;28;20049;-92
2021/09/16 06:12:40;;;;;;;19.90;16.17;;;15.80;99.90;;;;;;5015499;28;20566;-94
2021/09/16 06:15:07;;;;;;;20.17;14.48;;;15.80;99.90;;;;;;5015426;28;20422;-94
2021/09/16 06:17:33;;;;;;;20.67;13.65;;;15.80;99.90;;;;;;5016122;28;20421;-93
2021/09/16 06:20:01;;;;;;;18.50;12.20;;;15.70;99.90;;;;;;5017058;28;20049;-93
2021/09/16 06:22:28;;;;;;;18.95;12.88;;;15.70;99.90;;;;;;5037386;28;20028;-92
2021/09/16 06:24:54;;;;;;;18.70;13.38;;;15.60;99.90;;;;;;5030990;28;20076;-92
2021/09/16 06:27:21;;;;;;;24.40;15.45;;;15.60;99.90;;;;;;5014827;28;20054;-92
2021/09/16 06:29:48;;;;;;;22.05;15.20;;;15.50;99.90;;;;;;5015213;28;20050;-92
2021/09/16 06:32:15;;;;;;;18.77;15.20;;;15.60;99.90;;;;;;5015220;28;20050;-93
2021/09/16 06:34:41;;;;;;;21.23;14.50;;;15.70;99.90;;;;;;5015081;28;20053;-93
2021/09/16 06:37:08;;;;;;;22.25;15.85;;;15.60;99.90;;;;;;5015107;28;20060;-92
2021/09/16 06:39:35;;;;;;;16.35;14.48;;;15.70;99.90;;;;;;5014980;28;20479;-92
2021/09/16 06:42:02;;;;;;;21.98;16.20;;;15.90;99.90;;;;;;5014847;28;20072;-92
2021/09/16 06:44:29;;;;;;;19.00;15.23;;;15.90;99.90;;;;;;5015105;28;20425;-93
2021/09/16 06:46:55;;;;;;;17.33;12.30;;;16.00;99.90;;;;;;5014613;28;20491;-93
2021/09/16 06:49:22;;;;;;;18.02;14.25;;;16.00;99.90;;;;;;5015187;28;20567;-92
2021/09/16 06:51:49;;;;;;;18.83;14.88;;;15.90;99.90;;;;;;5014707;28;20056;-93
2021/09/16 06:54:16;;;;;;;20.45;13.70;;;16.00;99.90;;;;;;5015783;28;20052;-94
2021/09/16 06:56:42;;;;;;;16.55;13.00;;;15.90;99.90;;;;;;5017405;28;20064;-95
2021/09/16 06:59:09;;;;;;;21.13;13.68;;;16.00;99.90;;;;;;5015277;28;20080;-94
2021/09/16 07:01:36;;;;;;;21.17;16.60;;;16.00;99.90;;;;;;5014821;28;20137;-94
2021/09/16 07:04:03;;;;;;;19.50;14.73;;;16.10;99.90;;;;;;5014680;28;20443;-93
2021/09/16 07:06:34;;;;;;;21.45;15.65;;;16.10;99.90;;;;;;5015346;28;20057;-92
2021/09/16 07:09:01;;;;;;;14.02;12.55;;;16.10;99.90;;;;;;5017717;28;20053;-91
2021/09/16 07:11:28;;;;;;;16.55;13.77;;;16.20;99.90;;;;;;5050908;28;20153;-90
2021/09/16 07:13:55;;;;;;;14.27;12.77;;;16.20;99.90;;;;;;5017561;28;20117;-90
2021/09/16 07:16:22;;;;;;;14.60;12.52;;;16.30;99.90;;;;;;5017537;28;20136;-89
2021/09/16 07:18:48;;;;;;;14.05;11.55;;;16.30;99.90;;;;;;5050465;28;20392;-89
2021/09/16 07:21:15;;;;;;;15.18;11.13;;;16.30;99.90;;;;;;5017525;28;20059;-89
2021/09/16 07:23:42;;;;;;;12.48;11.15;;;16.30;99.90;;;;;;5017719;28;20128;-89
2021/09/16 07:26:23;;;;;;;14.38;10.63;;;16.20;99.90;;;;;;5019039;28;20452;-89
2021/09/16 07:28:50;;;;;;;15.57;13.15;;;16.20;99.90;;;;;;5017313;28;20417;-89
2021/09/16 07:31:17;;;;;;;12.20;10.88;;;16.20;99.90;;;;;;5017510;28;20071;-90
2021/09/16 07:33:44;;;;;;;16.42;10.95;;;16.30;99.90;;;;;;5017433;28;20054;-91
2021/09/16 07:36:10;;;;;;;11.35;10.15;;;16.30;99.90;;;;;;5017423;28;20144;-92
2021/09/16 07:38:37;;;;;;;10.88;8.45;;;16.30;99.90;;;;;;5018565;28;20049;-93
2021/09/16 07:41:04;;;;;;;11.07;8.75;;;16.30;99.90;;;;;;5038121;28;20105;-91
2021/09/16 07:43:30;;;;;;;14.35;9.85;;;16.30;99.90;;;;;;5034628;28;20049;-92
2021/09/16 07:45:57;;;;;;;13.02;9.88;;;16.30;99.90;;;;;;5017022;28;20064;-92
2021/09/16 07:48:24;;;;;;;13.10;11.15;;;16.40;99.90;;;;;;5017275;28;20049;-93
2021/09/16 07:50:50;;;;;;;13.20;10.15;;;16.50;99.90;;;;;;5017125;28;20049;-93
2021/09/16 07:53:17;;;;;;;13.95;7.50;;;16.40;99.90;;;;;;5017098;28;20057;-92
2021/09/16 07:55:45;;;;;;;12.75;8.60;;;16.40;99.90;;;;;;5016961;28;20056;-93
2021/09/16 07:58:12;;;;;;;13.63;8.82;;;16.20;99.90;;;;;;5017079;28;20144;-92
2021/09/16 08:00:38;;;;;;;12.77;9.40;;;16.20;99.90;;;;;;5017058;28;20049;-92
2021/09/16 08:03:05;;;;;;;8.73;7.82;;;16.30;99.90;;;;;;5016654;28;20069;-92
2021/09/16 08:05:32;;;;;;;10.18;7.88;;;16.40;99.90;;;;;;5016611;28;20061;-93
2021/09/16 08:07:59;;;;;;;11.38;9.18;;;16.50;99.90;;;;;;5016570;28;20136;-93
2021/09/16 08:10:26;;;;;;;11.57;9.30;;;16.60;99.90;;;;;;5049651;28;20511;-92
2021/09/16 08:12:52;;;;;;;9.77;8.30;;;16.60;99.90;;;;;;5016993;28;20476;-92
2021/09/16 08:15:19;;;;;;;11.88;8.45;;;16.70;99.90;;;;;;5016736;28;20053;-93
2021/09/16 08:17:46;;;;;;;8.80;7.95;;;16.60;99.90;;;;;;5016528;28;20041;-92
2021/09/16 08:20:14;;;;;;;10.68;9.20;;;16.50;99.90;;;;;;5016863;28;20368;-92
2021/09/16 08:22:43;;;;;;;8.88;8.07;;;16.40;99.90;;;;;;5016515;28;20093;-92
2021/09/16 08:25:11;;;;;;;17.17;10.48;;;16.40;99.90;;;;;;5016524;28;20053;-93
2021/09/16 08:27:38;;;;;;;10.45;9.40;;;16.40;99.90;;;;;;5016673;28;20057;-92
2021/09/16 08:30:07;;;;;;;14.18;9.98;;;16.30;99.90;;;;;;5016703;28;20045;-91
2021/09/16 08:32:34;;;;;;;15.27;10.82;;;16.20;99.90;;;;;;5016486;28;20590;-92
2021/09/16 08:35:05;;;;;;;12.07;10.77;;;16.20;99.90;;;;;;5016335;28;20060;-90
2021/09/16 08:37:33;;;;;;;13.93;10.77;;;16.30;99.90;;;;;;5016579;28;20137;-90
2021/09/16 08:40:01;;;;;;;13.23;11.02;;;16.40;99.90;;;;;;5016443;28;20099;-90
2021/09/16 08:42:28;;;;;;;11.32;10.10;;;16.50;99.90;;;;;;5016475;28;20144;-91
2021/09/16 08:44:55;;;;;;;14.65;11.55;;;16.50;99.90;;;;;;5016115;28;20088;-91
2021/09/16 08:47:24;;;;;;;14.80;10.77;;;16.70;99.90;;;;;;5016614;28;20526;-90
2021/09/16 08:49:54;;;;;;;10.43;9.40;;;16.80;99.90;;;;;;5016029;28;20112;-92
2021/09/16 08:52:21;;;;;;;11.13;9.05;;;17.10;99.90;;;;;;5016687;28;20045;-91
2021/09/16 08:54:49;;;;;;;8.60;7.90;;;17.10;99.90;;;;;;5016538;28;20053;-91
2021/09/16 08:57:16;;;;;;;9.20;8.40;;;17.00;99.90;;;;;;5017042;28;20057;-90
2021/09/16 08:59:44;;;;;;;10.13;9.10;;;17.00;99.90;;;;;;5035652;28;20033;-90
2021/09/16 09:02:12;;;;;;;11.93;10.23;;;17.00;99.90;;;;;;5035068;28;20077;-90
2021/09/16 09:04:40;;;;;;;12.55;9.18;;;17.00;99.90;;;;;;5016225;28;20049;-91
2021/09/16 09:07:07;;;;;;;9.95;9.18;;;17.00;99.90;;;;;;5015516;28;20167;-90
2021/09/16 09:09:34;;;;;;;9.75;8.93;;;17.00;99.90;;;;;;5015982;28;20139;-91
2021/09/16 09:12:08;;;;;;;10.55;9.45;;;17.00;99.90;;;;;;5016257;28;20049;-92
2021/09/16 09:14:36;;;;;;;;;;;16.90;99.90;;;;;;5016966;28;20041;-88
2021/09/16 09:17:25;;;;;;;11.52;9.82;;;16.60;99.90;;;;;;5020054;28;19925;-90
2021/09/16 09:19:54;;;;;;;11.05;8.93;;;16.40;99.90;;;;;;5020459;28;20076;-89
2021/09/16 09:22:33;;;;;;;9.98;8.55;;;16.30;99.90;;;;;;5020113;28;20054;-90
2021/09/16 09:25:08;;;;;;;11.95;9.40;;;16.10;99.90;;;;;;5019858;28;20585;-90
2021/09/16 09:27:47;;;;;;;14.50;9.50;;;16.00;99.90;;;;;;5019545;28;20049;-90
2021/09/16 09:30:17;;;;;;;11.77;9.20;;;15.90;99.90;;;;;;5020361;28;20052;-91
2021/09/16 09:32:46;;;;;;;10.27;9.05;;;15.70;99.90;;;;;;5019049;28;20517;-88
2021/09/16 09:35:43;;;;;;;16.73;9.80;;;15.60;99.90;;;;;;5019350;28;20053;-90
2021/09/16 09:38:16;;;;;;;13.63;8.73;;;15.50;99.90;;;;;;5007472;28;20123;-91
2021/09/16 09:40:45;;;;;;;16.10;10.87;;;15.50;99.90;;;;;;5019894;28;20057;-90
2021/09/16 09:43:36;;;;;;;14.60;9.93;;;15.30;99.90;;;;;;5019720;28;20053;-92
2021/09/16 09:46:09;;;;;;;15.23;11.73;;;15.30;99.90;;;;;;5019373;28;20063;-90
2021/09/16 09:48:56;;;;;;;17.27;12.27;;;15.30;99.90;;;;;;5020085;28;20300;-91
2021/09/16 09:51:38;;;;;;;16.10;10.52;;;15.30;99.90;;;;;;5019512;28;20132;-90
2021/09/16 09:54:21;;;;;;;15.18;9.95;;;15.40;99.90;;;;;;5019608;28;20057;-87
2021/09/16 09:57:14;;;;;;;13.00;10.30;;;15.40;99.90;;;;;;5019579;28;20049;-89
2021/09/16 10:00:07;;;;;;;17.05;10.10;;;15.30;99.90;;;;;;5020122;28;20052;-89
2021/09/16 10:02:54;;;;;;;14.98;11.05;;;15.40;99.90;;;;;;5019482;28;20057;-88
2021/09/16 10:05:33;;;;;;;15.73;10.88;;;15.50;99.90;;;;;;5019483;28;20079;-89
2021/09/16 10:08:06;;;;;;;13.57;10.27;;;15.50;99.90;;;;;;5018788;28;20058;-88
2021/09/16 10:10:36;;;;;;;13.90;10.10;;;15.60;99.90;;;;;;5019335;28;20063;-89
2021/09/16 10:13:03;;;;;;;14.18;10.60;;;15.60;99.90;;;;;;5019269;28;20140;-88
2021/09/16 10:15:31;;;;;;;10.23;9.20;;;15.60;99.90;;;;;;5019283;28;20084;-89
2021/09/16 10:17:58;;;;;;;14.40;10.65;;;15.70;99.90;;;;;;5030211;28;20033;-89
2021/09/16 10:20:28;;;;;;;14.50;10.13;;;15.90;99.90;;;;;;5042661;28;20044;-87
2021/09/16 10:22:58;;;;;;;13.98;10.38;;;16.00;99.90;;;;;;5020359;28;20140;-88
2021/09/16 10:25:27;;;;;;;14.15;10.75;;;15.90;99.90;;;;;;5018840;28;20050;-89
2021/09/16 10:28:03;;;;;;;11.77;10.13;;;15.90;99.90;;;;;;5017581;28;20140;-91
2021/09/16 10:30:32;;;;;;;12.05;9.98;;;15.90;99.90;;;;;;5018616;28;20059;-87
2021/09/16 10:33:03;;;;;;;12.65;9.93;;;16.00;99.90;;;;;;5018507;28;20140;-88
2021/09/16 10:35:31;;;;;;;12.55;9.70;;;15.90;99.90;;;;;;5018589;28;20075;-88
2021/09/16 10:38:35;;;;;;;11.38;10.23;;;15.90;99.90;;;;;;5018790;28;20414;-88
2021/09/16 10:41:12;;;;;;;11.65;8.80;;;15.90;99.90;;;;;;5018360;28;20119;-88
2021/09/16 10:43:40;;;;;;;13.13;9.35;;;16.00;99.90;;;;;;5018205;28;20498;-88
2021/09/16 10:46:29;;;;;;;10.27;8.57;;;16.00;99.90;;;;;;5017998;28;20150;-88
2021/09/16 10:48:57;;;;;;;14.52;10.63;;;16.10;99.90;;;;;;5018203;28;20050;-88
2021/09/16 10:51:43;;;;;;;11.48;9.18;;;16.10;99.90;;;;;;5018687;28;20092;-88
2021/09/16 10:54:38;;;;;;;11.27;10.18;;;16.20;99.90;;;;;;5018103;28;20486;-87
2021/09/16 10:57:07;;;;;;;10.52;9.38;;;16.30;99.90;;;;;;5018052;28;20052;-88
2021/09/16 10:59:52;;;;;;;11.25;10.05;;;16.40;99.90;;;;;;5018260;28;20049;-87
2021/09/16 11:02:20;;;;;;;12.52;9.65;;;16.30;99.90;;;;;;5017924;28;20053;-88
2021/09/16 11:04:57;;;;;;;15.35;9.57;;;16.20;99.90;;;;;;5036658;28;20057;-87
2021/09/16 11:07:37;;;;;;;13.38;11.18;;;16.10;99.90;;;;;;5014004;28;20411;-88
2021/09/16 11:10:20;;;;;;;22.02;12.23;;;16.10;99.90;;;;;;5014376;28;20089;-88
2021/09/16 11:12:55;;;;;;;14.02;11.10;;;16.00;99.90;;;;;;5015214;28;20084;-88
2021/09/16 11:15:31;;;;;;;17.48;11.10;;;16.00;99.90;;;;;;5015028;28;20129;-88
2021/09/16 11:18:06;;;;;;;16.42;11.10;;;16.00;99.90;;;;;;5014596;28;20515;-88
2021/09/16 11:20:34;;;;;;;13.82;12.18;;;16.00;99.90;;;;;;5015265;28;20138;-89
2021/09/16 11:23:01;;;;;;;14.32;11.57;;;15.90;99.90;;;;;;5014850;28;20075;-89
2021/09/16 11:25:38;;;;;;;19.63;11.65;;;15.90;99.90;;;;;;5014039;28;20069;-88
2021/09/16 11:28:06;;;;;;;15.85;10.80;;;15.90;99.90;;;;;;5013914;28;20132;-89
2021/09/16 11:30:35;;;;;;;17.70;12.20;;;16.00;99.90;;;;;;5014121;28;20049;-89
2021/09/16 11:33:13;;;;;;;20.42;11.95;;;16.10;99.90;;;;;;5014060;28;20140;-89
2021/09/16 11:35:40;;;;;;;14.18;10.57;;;16.10;99.90;;;;;;5015387;28;20137;-89
2021/09/16 11:38:07;;;;;;;16.50;11.90;;;16.00;99.90;;;;;;5037267;28;20037;-90
2021/09/16 11:40:39;;;;;;;14.88;10.70;;;16.00;99.90;;;;;;5026764;28;20062;-91
2021/09/16 11:43:09;;;;;;;14.40;10.85;;;16.00;99.90;;;;;;5013766;28;20482;-88
2021/09/16 11:45:48;;;;;;;12.68;10.13;;;16.00;99.90;;;;;;5013765;28;20137;-89
2021/09/16 11:48:17;;;;;;;11.30;9.48;;;16.20;99.90;;;;;;5013399;28;20058;-89
2021/09/16 11:50:50;;;;;;;11.65;9.13;;;16.30;99.90;;;;;;5046417;28;20053;-88
2021/09/16 11:53:23;;;;;;;11.05;9.93;;;16.40;99.90;;;;;;5046375;28;20064;-89
2021/09/16 11:55:54;;;;;;;12.88;10.52;;;16.40;99.90;;;;;;5034980;28;20049;-88
2021/09/16 11:58:23;;;;;;;10.63;9.40;;;16.30;99.90;;;;;;5013675;28;20415;-88
2021/09/16 12:00:59;;;;;;;10.00;9.00;;;16.40;99.90;;;;;;5046269;28;20045;-88
2021/09/16 12:03:29;;;;;;;12.35;9.48;;;16.50;99.90;;;;;;5013942;28;20050;-87
2021/09/16 12:05:57;;;;;;;9.68;8.65;;;16.60;99.90;;;;;;5045316;28;20071;-88
2021/09/16 12:08:27;;;;;;;15.02;9.75;;;16.70;99.90;;;;;;5013148;28;20058;-89
2021/09/16 12:11:08;;;;;;;17.48;10.55;;;16.80;99.90;;;;;;5045847;28;20137;-87
2021/09/16 12:14:02;;;;;;;13.63;11.18;;;16.80;99.90;;;;;;5014084;28;20482;-87
2021/09/16 12:16:33;;;;;;;15.23;11.32;;;16.80;99.90;;;;;;5009933;28;20073;-90
2021/09/16 12:19:07;;;;;;;10.85;9.38;;;17.00;99.90;;;;;;5014072;28;20096;-89
2021/09/16 12:21:45;;;;;;;10.70;9.57;;;17.10;99.90;;;;;;5045770;28;20041;-88
2021/09/16 12:24:18;;;;;;;11.10;9.13;;;17.40;99.90;;;;;;5041575;28;20054;-88
2021/09/16 12:26:51;;;;;;;11.90;8.93;;;17.50;99.90;;;;;;5046219;28;20138;-88
2021/09/16 12:29:23;;;;;;;12.00;8.27;;;17.70;99.90;;;;;;5046497;28;20054;-88
2021/09/16 12:31:59;;;;;;;10.90;7.32;;;18.00;99.90;;;;;;5011467;28;20050;-88
2021/09/16 12:34:32;;;;;;;9.07;7.47;;;18.50;99.90;;;;;;5044424;28;20081;-87
2021/09/16 12:37:01;;;;;;;8.30;7.60;;;18.60;99.90;;;;;;5044585;28;20144;-88
2021/09/16 12:39:30;;;;;;;8.23;7.47;;;18.60;99.90;;;;;;5012319;28;20058;-88
2021/09/16 12:41:59;;;;;;;29.52;21.30;;;18.90;99.90;;;;;;5011252;28;20045;-87